createdAt,value
2023-02-11T00:00:20.660Z,17.40
2023-02-11T00:02:48.073Z,19.53
2023-02-11T00:05:15.377Z,18.70
2023-02-11T00:07:41.961Z,18.00
2023-02-11T00:10:09.029Z,19.40
2023-02-11T00:12:36.590Z,18.93
2023-02-11T00:15:03.756Z,17.70
2023-02-11T00:17:30.112Z,17.87
2023-02-11T00:19:56.510Z,18.57
2023-02-11T00:22:22.927Z,17.97
2023-02-11T00:24:49.360Z,21.13
2023-02-11T00:27:16.004Z,19.57
2023-02-11T00:29:42.350Z,17.83
2023-02-11T00:32:10.572Z,18.43
2023-02-11T00:34:37.982Z,17.10
2023-02-11T00:37:05.066Z,18.93
2023-02-11T00:39:31.523Z,18.43
2023-02-11T00:41:58.490Z,20.13
2023-02-11T00:44:25.086Z,19.40
2023-02-11T00:46:51.433Z,18.90
2023-02-11T00:49:17.972Z,19.37
2023-02-11T00:51:44.363Z,19.03
2023-02-11T00:54:10.794Z,18.90
2023-02-11T00:56:37.224Z,18.30
2023-02-11T00:59:03.776Z,19.67
2023-02-11T01:01:30.239Z,19.60
2023-02-11T01:03:56.598Z,18.40
2023-02-11T01:06:23.235Z,18.97
2023-02-11T01:08:49.604Z,19.47
2023-02-11T01:11:19.475Z,19.77
2023-02-11T01:13:47.126Z,18.03
2023-02-11T01:16:13.596Z,17.90
2023-02-11T01:18:41.864Z,17.50
2023-02-11T01:21:08.323Z,20.00
2023-02-11T01:23:34.670Z,20.20
2023-02-11T01:26:01.381Z,20.77
2023-02-11T01:28:29.159Z,19.80
2023-02-11T01:30:55.985Z,21.10
2023-02-11T01:33:23.085Z,18.63
2023-02-11T01:35:50.090Z,18.40
2023-02-11T01:38:19.181Z,18.60
2023-02-11T01:40:54.295Z,19.00
2023-02-11T01:43:21.355Z,18.60
2023-02-11T01:45:47.664Z,19.47
2023-02-11T01:48:25.028Z,19.03
2023-02-11T01:50:56.504Z,19.60
2023-02-11T01:53:41.592Z,18.70
2023-02-11T01:56:27.549Z,19.33
2023-02-11T01:58:59.084Z,18.63
2023-02-11T02:01:27.567Z,19.93
2023-02-11T02:03:59.674Z,19.90
2023-02-11T02:06:33.939Z,18.97
2023-02-11T02:09:06.788Z,18.67
2023-02-11T02:11:33.261Z,20.13
2023-02-11T02:13:59.729Z,18.73
2023-02-11T02:16:37.074Z,19.03
2023-02-11T02:19:40.411Z,19.33
2023-02-11T02:22:28.376Z,18.87
2023-02-11T02:25:21.344Z,18.70
2023-02-11T02:28:36.748Z,20.27
2023-02-11T02:31:47.065Z,18.83
2023-02-11T02:34:34.206Z,18.53
2023-02-11T02:37:17.997Z,19.70
2023-02-11T02:39:46.813Z,19.13
2023-02-11T02:42:14.043Z,19.60
2023-02-11T02:44:40.464Z,18.40
2023-02-11T02:47:06.949Z,19.53
2023-02-11T02:49:33.292Z,19.63
2023-02-11T02:52:34.060Z,20.97
2023-02-11T02:55:30.956Z,18.93
2023-02-11T02:58:21.588Z,18.50
2023-02-11T03:01:08.070Z,19.57
2023-02-11T03:03:56.049Z,18.10
2023-02-11T03:06:34.578Z,19.13
2023-02-11T03:09:17.885Z,20.07
2023-02-11T03:11:45.150Z,18.30
2023-02-11T03:14:15.279Z,19.03
2023-02-11T03:16:43.437Z,18.97
2023-02-11T03:19:15.264Z,19.80
2023-02-11T03:21:44.059Z,18.67
2023-02-11T03:24:20.478Z,19.57
2023-02-11T03:26:51.349Z,20.43
2023-02-11T03:29:33.282Z,20.20
2023-02-11T03:32:32.808Z,18.77
2023-02-11T03:35:07.531Z,19.20
2023-02-11T03:38:05.267Z,20.00
2023-02-11T03:40:36.499Z,20.47
2023-02-11T03:43:09.530Z,18.47
2023-02-11T03:45:38.340Z,19.93
2023-02-11T03:48:19.970Z,19.77
2023-02-11T03:50:48.301Z,20.20
2023-02-11T03:53:15.781Z,19.27
2023-02-11T03:55:43.945Z,18.47
2023-02-11T03:58:10.779Z,18.40
2023-02-11T04:00:41.114Z,18.70
2023-02-11T04:03:09.410Z,19.80
2023-02-11T04:05:36.143Z,20.63
2023-02-11T04:08:02.769Z,19.17
2023-02-11T04:10:29.173Z,18.87
2023-02-11T04:12:55.584Z,20.13
2023-02-11T04:15:22.255Z,19.70
2023-02-11T04:17:48.649Z,19.10
2023-02-11T04:20:15.041Z,20.63
2023-02-11T04:22:41.480Z,19.47
2023-02-11T04:25:09.490Z,18.50
2023-02-11T04:27:36.237Z,19.20
2023-02-11T04:30:05.302Z,19.57
2023-02-11T04:32:31.813Z,20.30
2023-02-11T04:34:58.156Z,20.03
2023-02-11T04:37:24.514Z,19.40
2023-02-11T04:39:50.852Z,19.30
2023-02-11T04:42:17.213Z,20.27
2023-02-11T04:44:43.548Z,19.33
2023-02-11T04:47:10.162Z,21.30
2023-02-11T04:49:36.578Z,19.10
2023-02-11T04:52:02.926Z,18.33
2023-02-11T04:54:29.278Z,18.97
2023-02-11T04:56:55.681Z,21.43
2023-02-11T04:59:22.010Z,19.83
2023-02-11T05:01:49.410Z,20.40
2023-02-11T05:04:16.558Z,18.83
2023-02-11T05:06:42.957Z,20.10
2023-02-11T05:09:11.797Z,20.90
2023-02-11T05:11:39.385Z,20.40
2023-02-11T05:14:06.545Z,20.13
2023-02-11T05:16:34.431Z,18.50
2023-02-11T05:19:00.941Z,19.43
2023-02-11T05:21:27.348Z,19.07
2023-02-11T05:23:53.672Z,20.17
2023-02-11T05:26:20.142Z,21.20
2023-02-11T05:28:46.610Z,19.67
2023-02-11T05:31:14.513Z,21.27
2023-02-11T05:33:41.323Z,20.90
2023-02-11T05:36:10.378Z,21.60
2023-02-11T05:38:37.989Z,18.90
2023-02-11T05:41:05.907Z,21.77
2023-02-11T05:43:32.501Z,18.90
2023-02-11T05:45:58.880Z,22.70
2023-02-11T05:48:25.248Z,20.50
2023-02-11T05:50:51.618Z,22.27
2023-02-11T05:53:17.999Z,20.80
2023-02-11T05:55:44.700Z,20.83
2023-02-11T05:58:11.192Z,19.80
2023-02-11T06:00:37.860Z,19.87
2023-02-11T06:03:04.523Z,19.97
2023-02-11T06:05:31.181Z,19.80
2023-02-11T06:07:57.613Z,19.03
2023-02-11T06:10:24.077Z,22.10
2023-02-11T06:12:50.470Z,19.10
2023-02-11T06:15:17.029Z,21.00
2023-02-11T06:17:43.357Z,21.40
2023-02-11T06:20:10.882Z,22.10
2023-02-11T06:22:37.506Z,21.07
2023-02-11T06:25:04.247Z,22.50
2023-02-11T06:27:30.596Z,22.40
2023-02-11T06:29:56.970Z,25.00
2023-02-11T06:32:43.261Z,23.87
2023-02-11T06:35:11.916Z,26.20
2023-02-11T06:37:39.397Z,25.63
2023-02-11T06:40:06.252Z,23.70
2023-02-11T06:42:32.632Z,22.10
2023-02-11T06:44:58.963Z,21.83
2023-02-11T06:47:25.375Z,22.80
2023-02-11T06:49:51.742Z,21.87
2023-02-11T06:52:18.076Z,21.57
2023-02-11T06:54:44.502Z,22.33
2023-02-11T06:57:10.872Z,22.13
2023-02-11T06:59:37.293Z,23.23
2023-02-11T07:02:03.721Z,21.13
2023-02-11T07:04:30.094Z,21.63
2023-02-11T07:06:56.462Z,21.97
2023-02-11T07:09:23.165Z,20.37
2023-02-11T07:11:49.528Z,21.37
2023-02-11T07:14:15.866Z,22.20
2023-02-11T07:16:42.288Z,21.53
2023-02-11T07:19:08.626Z,21.47
2023-02-11T07:21:35.064Z,22.90
2023-02-11T07:24:02.015Z,21.30
2023-02-11T07:26:29.244Z,21.13
2023-02-11T07:28:55.609Z,23.10
2023-02-11T07:31:25.168Z,21.60
2023-02-11T07:33:53.598Z,22.07
2023-02-11T07:36:21.563Z,19.90
2023-02-11T07:38:48.722Z,21.90
2023-02-11T07:41:18.049Z,22.50
2023-02-11T07:43:45.241Z,22.23
2023-02-11T07:46:32.034Z,22.20
2023-02-11T07:48:58.457Z,21.53
2023-02-11T07:51:27.625Z,22.97
2023-02-11T07:53:55.504Z,23.30
2023-02-11T07:56:22.905Z,25.63
2023-02-11T07:58:49.855Z,24.60
2023-02-11T08:01:25.945Z,24.83
2023-02-11T08:03:52.995Z,24.40
2023-02-11T08:06:21.494Z,23.20
2023-02-11T08:08:48.471Z,25.00
2023-02-11T08:11:20.410Z,27.10
2023-02-11T08:13:46.786Z,25.60
2023-02-11T08:16:25.183Z,26.67
2023-02-11T08:18:53.062Z,26.50
2023-02-11T08:21:20.814Z,25.47
2023-02-11T08:23:47.619Z,26.40
2023-02-11T08:26:19.834Z,30.20
2023-02-11T08:28:47.693Z,27.70
2023-02-11T08:31:17.877Z,26.90
2023-02-11T08:33:45.207Z,28.10
2023-02-11T08:36:18.014Z,27.03
2023-02-11T08:38:44.783Z,25.60
2023-02-11T08:41:11.447Z,27.10
2023-02-11T08:43:41.774Z,29.90
2023-02-11T08:46:10.102Z,27.07
2023-02-11T08:48:36.464Z,28.60
2023-02-11T08:51:08.095Z,24.00
2023-02-11T08:53:35.473Z,25.17
2023-02-11T08:56:02.301Z,26.93
2023-02-11T08:58:29.665Z,24.83
2023-02-11T09:00:56.186Z,25.83
2023-02-11T09:03:22.679Z,25.63
2023-02-11T09:05:50.183Z,27.90
2023-02-11T09:08:17.057Z,26.77
2023-02-11T09:10:43.552Z,26.70
2023-02-11T09:13:10.163Z,25.53
2023-02-11T09:15:37.032Z,25.40
2023-02-11T09:18:04.395Z,26.27
2023-02-11T09:20:30.925Z,27.20
2023-02-11T09:22:58.953Z,27.10
2023-02-11T09:25:25.883Z,28.20
2023-02-11T09:27:53.672Z,27.27
2023-02-11T09:30:20.085Z,26.30
2023-02-11T09:32:46.462Z,25.77
2023-02-11T09:35:12.785Z,24.00
2023-02-11T09:37:39.145Z,25.80
2023-02-11T09:40:06.014Z,24.20
2023-02-11T09:43:01.763Z,25.47
2023-02-11T09:45:31.184Z,24.80
2023-02-11T09:48:27.149Z,25.63
2023-02-11T09:50:58.637Z,25.27
2023-02-11T09:53:26.271Z,26.47
2023-02-11T09:55:59.403Z,27.43
2023-02-11T09:58:30.345Z,28.40
2023-02-11T10:01:04.767Z,27.17
2023-02-11T10:04:03.076Z,26.87
2023-02-11T10:06:47.789Z,24.77
2023-02-11T10:09:30.318Z,26.43
2023-02-11T10:12:16.389Z,25.17
2023-02-11T10:14:55.193Z,25.00
2023-02-11T10:17:56.972Z,23.20
2023-02-11T10:20:32.444Z,23.33
2023-02-11T10:23:02.316Z,24.17
2023-02-11T10:25:36.307Z,24.30
2023-02-11T10:28:13.896Z,24.87
2023-02-11T10:30:59.377Z,24.90
2023-02-11T10:33:46.371Z,25.70
2023-02-11T10:36:14.393Z,23.93
2023-02-11T10:38:40.794Z,23.93
2023-02-11T10:41:13.583Z,20.13
2023-02-11T10:43:42.306Z,23.73
2023-02-11T10:46:18.183Z,21.37
2023-02-11T10:48:53.606Z,22.93
2023-02-11T10:51:34.001Z,22.07
2023-02-11T10:54:24.720Z,23.03
2023-02-11T10:56:58.670Z,24.10
2023-02-11T10:59:40.037Z,20.30
2023-02-11T11:02:24.525Z,20.20
2023-02-11T11:04:57.439Z,20.60
2023-02-11T11:07:29.672Z,21.30
2023-02-11T11:10:00.261Z,23.20
2023-02-11T11:12:45.205Z,21.40
2023-02-11T11:15:11.544Z,22.50
2023-02-11T11:17:38.316Z,22.67
2023-02-11T11:20:27.727Z,21.10
2023-02-11T11:23:10.723Z,21.50
2023-02-11T11:25:41.499Z,21.87
2023-02-11T11:28:20.425Z,20.03
2023-02-11T11:30:47.132Z,20.17
2023-02-11T11:33:24.663Z,19.83
2023-02-11T11:36:09.318Z,20.00
2023-02-11T11:38:42.745Z,18.60
2023-02-11T11:41:16.038Z,19.20
2023-02-11T11:44:03.765Z,19.00
2023-02-11T11:46:38.051Z,18.70
2023-02-11T11:49:14.636Z,18.90
2023-02-11T11:51:45.514Z,21.73
2023-02-11T11:54:15.883Z,17.17
2023-02-11T11:56:52.101Z,16.60
2023-02-11T11:59:18.776Z,15.67
2023-02-11T12:01:54.225Z,18.50
2023-02-11T12:04:35.973Z,17.00
2023-02-11T12:07:16.348Z,16.60
2023-02-11T12:10:16.800Z,16.90
2023-02-11T12:13:08.480Z,18.17
2023-02-11T12:15:53.170Z,17.57
2023-02-11T12:18:38.023Z,16.60
2023-02-11T12:21:24.048Z,18.27
2023-02-11T12:23:53.407Z,17.33
2023-02-11T12:26:23.601Z,17.90
2023-02-11T12:29:13.953Z,18.90
2023-02-11T12:31:52.674Z,17.53
2023-02-11T12:34:36.673Z,15.70
2023-02-11T12:37:32.406Z,16.13
2023-02-11T12:40:22.778Z,16.87
2023-02-11T12:43:16.808Z,16.70
2023-02-11T12:46:11.686Z,16.43
2023-02-11T12:49:16.116Z,14.70
2023-02-11T12:51:51.322Z,15.40
2023-02-11T12:54:24.344Z,17.47
2023-02-11T12:56:59.090Z,18.70
2023-02-11T12:59:33.348Z,17.37
2023-02-11T13:02:03.849Z,17.40
2023-02-11T13:04:44.597Z,19.63
2023-02-11T13:07:19.690Z,18.40
2023-02-11T13:09:56.196Z,18.30
2023-02-11T13:12:42.467Z,18.20
2023-02-11T13:15:14.589Z,16.77
2023-02-11T13:17:48.697Z,18.77
2023-02-11T13:20:28.278Z,16.50
2023-02-11T13:23:05.841Z,18.03
2023-02-11T13:25:41.592Z,16.17
2023-02-11T13:28:25.490Z,17.23
2023-02-11T13:31:02.043Z,16.20
2023-02-11T13:33:42.882Z,15.27
2023-02-11T13:36:09.157Z,20.30
2023-02-11T13:38:37.120Z,15.33
2023-02-11T13:41:17.150Z,16.43
2023-02-11T13:43:44.442Z,16.60
2023-02-11T13:46:13.648Z,16.80
2023-02-11T13:48:48.291Z,15.50
2023-02-11T13:51:32.317Z,15.30
2023-02-11T13:53:59.166Z,16.80
2023-02-11T13:56:31.639Z,16.60
2023-02-11T13:59:02.154Z,16.27
2023-02-11T14:01:42.196Z,13.83
2023-02-11T14:04:42.999Z,14.17
2023-02-11T14:07:50.089Z,16.20
2023-02-11T14:10:35.002Z,16.83
2023-02-11T14:13:23.657Z,14.80
2023-02-11T14:16:36.345Z,17.40
2023-02-11T14:19:03.667Z,17.97
2023-02-11T14:21:42.258Z,20.27
2023-02-11T14:24:12.829Z,20.27
2023-02-11T14:27:20.629Z,20.10
2023-02-11T14:29:53.459Z,21.77
2023-02-11T14:32:41.379Z,19.77
2023-02-11T14:35:28.876Z,19.03
2023-02-11T14:38:25.175Z,17.70
2023-02-11T14:41:09.370Z,18.83
2023-02-11T14:43:41.812Z,18.47
2023-02-11T14:46:08.735Z,19.43
2023-02-11T14:48:37.969Z,18.30
2023-02-11T14:51:09.932Z,18.90
2023-02-11T14:53:37.857Z,21.13
2023-02-11T14:56:18.252Z,21.23
2023-02-11T14:58:51.559Z,20.80
2023-02-11T15:01:35.213Z,19.47
2023-02-11T15:04:04.169Z,20.80
2023-02-11T15:06:31.840Z,21.03
2023-02-11T15:09:00.696Z,20.40
2023-02-11T15:11:30.734Z,21.00
2023-02-11T15:14:00.425Z,22.23
2023-02-11T15:16:28.899Z,23.00
2023-02-11T15:19:01.184Z,23.10
2023-02-11T15:21:30.842Z,21.80
2023-02-11T15:23:59.052Z,21.60
2023-02-11T15:26:25.685Z,21.87
2023-02-11T15:28:52.442Z,21.90
2023-02-11T15:31:23.305Z,21.20
2023-02-11T15:33:50.560Z,21.87
2023-02-11T15:36:19.810Z,22.03
2023-02-11T15:38:46.285Z,22.40
2023-02-11T15:41:36.436Z,21.70
2023-02-11T15:44:03.206Z,20.20
2023-02-11T15:46:38.081Z,21.97
2023-02-11T15:49:05.303Z,21.00
2023-02-11T15:51:35.393Z,21.70
2023-02-11T15:54:04.946Z,21.30
2023-02-11T15:56:44.499Z,20.53
2023-02-11T15:59:22.412Z,21.23
2023-02-11T16:01:49.379Z,27.50
2023-02-11T16:04:24.778Z,22.13
2023-02-11T16:06:52.139Z,21.93
2023-02-11T16:09:18.393Z,21.00
2023-02-11T16:11:47.438Z,20.70
2023-02-11T16:14:21.801Z,22.67
2023-02-11T16:16:51.006Z,21.70
2023-02-11T16:19:22.291Z,21.00
2023-02-11T16:21:50.850Z,22.97
2023-02-11T16:24:24.880Z,22.30
2023-02-11T16:26:54.709Z,21.37
2023-02-11T16:29:29.241Z,22.50
2023-02-11T16:32:08.339Z,21.50
2023-02-11T16:34:35.016Z,21.03
2023-02-11T16:37:04.293Z,21.30
2023-02-11T16:39:30.747Z,21.83
2023-02-11T16:41:57.161Z,22.83
2023-02-11T16:44:23.973Z,22.13
2023-02-11T16:46:51.970Z,23.30
2023-02-11T16:49:23.221Z,22.37
2023-02-11T16:51:51.543Z,21.90
2023-02-11T16:54:19.344Z,23.40
2023-02-11T16:56:45.935Z,21.70
2023-02-11T16:59:12.394Z,20.90
2023-02-11T17:01:41.059Z,21.87
2023-02-11T17:04:15.147Z,23.23
2023-02-11T17:06:41.609Z,20.77
2023-02-11T17:09:15.305Z,20.40
2023-02-11T17:11:41.625Z,21.60
2023-02-11T17:14:07.950Z,21.07
2023-02-11T17:16:34.517Z,19.90
2023-02-11T17:19:00.919Z,20.10
2023-02-11T17:21:29.901Z,23.70
2023-02-11T17:23:56.433Z,42.03
2023-02-11T17:26:22.744Z,27.03
2023-02-11T17:28:49.064Z,22.93
2023-02-11T17:31:15.900Z,22.87
2023-02-11T17:33:42.565Z,27.37
2023-02-11T17:36:09.780Z,23.77
2023-02-11T17:38:37.345Z,21.93
2023-02-11T17:41:05.044Z,23.57
2023-02-11T17:43:31.766Z,24.07
2023-02-11T17:45:58.295Z,27.83
2023-02-11T17:48:24.953Z,26.67
2023-02-11T17:50:51.328Z,26.47
2023-02-11T17:53:17.649Z,25.00
2023-02-11T17:55:43.973Z,24.83
2023-02-11T17:58:10.331Z,26.00
2023-02-11T18:00:36.889Z,27.40
2023-02-11T18:03:03.654Z,26.00
2023-02-11T18:05:34.830Z,23.40
2023-02-11T18:08:01.182Z,24.90
2023-02-11T18:10:27.692Z,24.13
2023-02-11T18:12:54.089Z,24.80
2023-02-11T18:15:20.429Z,24.10
2023-02-11T18:17:46.771Z,28.20
2023-02-11T18:20:13.404Z,25.10
2023-02-11T18:22:40.885Z,25.90
2023-02-11T18:25:08.589Z,26.57
2023-02-11T18:27:34.953Z,25.00
2023-02-11T18:30:01.382Z,26.40
2023-02-11T18:32:27.772Z,24.33
2023-02-11T18:34:54.204Z,24.70
2023-02-11T18:37:20.572Z,24.30
2023-02-11T18:39:46.895Z,25.90
2023-02-11T18:42:13.467Z,25.57
2023-02-11T18:44:39.847Z,21.80
2023-02-11T18:47:06.450Z,23.20
2023-02-11T18:49:35.495Z,24.47
2023-02-11T18:52:02.330Z,23.30
2023-02-11T18:54:28.656Z,24.80
2023-02-11T18:56:54.970Z,22.87
2023-02-11T18:59:21.281Z,21.80
2023-02-11T19:01:47.655Z,22.10
2023-02-11T19:04:19.579Z,23.20
2023-02-11T19:06:49.351Z,20.50
2023-02-11T19:09:18.618Z,20.73
2023-02-11T19:11:52.104Z,22.20
2023-02-11T19:14:27.001Z,22.20
2023-02-11T19:16:56.282Z,21.50
2023-02-11T19:19:28.163Z,19.67
2023-02-11T19:21:55.346Z,23.83
2023-02-11T19:24:23.439Z,22.03
2023-02-11T19:26:52.417Z,21.60
2023-02-11T19:29:19.162Z,21.93
2023-02-11T19:31:45.796Z,20.90
2023-02-11T19:34:14.054Z,21.47
2023-02-11T19:36:40.733Z,21.33
2023-02-11T19:39:07.409Z,22.20
2023-02-11T19:41:34.662Z,21.30
2023-02-11T19:44:02.709Z,24.53
2023-02-11T19:46:31.895Z,25.43
2023-02-11T19:49:00.009Z,24.63
2023-02-11T19:51:26.681Z,21.30
2023-02-11T19:53:53.765Z,23.20
2023-02-11T19:56:20.999Z,20.90
2023-02-11T19:58:47.809Z,22.00
2023-02-11T20:01:17.279Z,20.77
2023-02-11T20:03:43.780Z,23.07
2023-02-11T20:06:14.463Z,21.93
2023-02-11T20:08:41.356Z,23.07
2023-02-11T20:11:12.289Z,21.10
2023-02-11T20:13:39.259Z,21.50
2023-02-11T20:16:09.609Z,23.00
2023-02-11T20:18:36.865Z,21.67
2023-02-11T20:21:10.057Z,21.37
2023-02-11T20:23:38.483Z,21.47
2023-02-11T20:26:13.575Z,22.80
2023-02-11T20:28:40.052Z,21.00
2023-02-11T20:31:06.979Z,23.90
2023-02-11T20:33:34.640Z,29.43
2023-02-11T20:36:09.989Z,26.13
2023-02-11T20:38:37.492Z,23.17
2023-02-11T20:41:13.744Z,22.40
2023-02-11T20:43:46.112Z,22.63
2023-02-11T20:46:14.944Z,22.80
2023-02-11T20:48:41.590Z,21.80
2023-02-11T20:51:14.870Z,23.30
2023-02-11T20:53:43.961Z,22.90
2023-02-11T20:56:11.902Z,23.33
2023-02-11T20:58:39.186Z,23.03
2023-02-11T21:01:22.262Z,23.17
2023-02-11T21:03:54.537Z,22.10
2023-02-11T21:06:22.204Z,21.73
2023-02-11T21:08:48.642Z,21.80
2023-02-11T21:11:15.209Z,21.90
2023-02-11T21:13:43.149Z,25.57
2023-02-11T21:16:14.497Z,21.90
2023-02-11T21:18:41.333Z,22.97
2023-02-11T21:21:07.934Z,21.20
2023-02-11T21:23:35.731Z,21.63
2023-02-11T21:26:02.188Z,21.23
2023-02-11T21:28:28.652Z,22.13
2023-02-11T21:30:56.654Z,21.97
2023-02-11T21:33:24.734Z,21.57
2023-02-11T21:35:58.057Z,23.00
2023-02-11T21:38:25.222Z,24.13
2023-02-11T21:40:52.205Z,26.30
2023-02-11T21:43:18.976Z,21.20
2023-02-11T21:45:46.965Z,20.90
2023-02-11T21:48:13.868Z,20.47
2023-02-11T21:50:42.134Z,21.20
2023-02-11T21:53:09.386Z,20.43
2023-02-11T21:55:37.021Z,20.50
2023-02-11T21:58:04.139Z,21.70
2023-02-11T22:00:31.134Z,21.70
2023-02-11T22:02:57.485Z,24.33
2023-02-11T22:05:24.182Z,22.23
2023-02-11T22:07:51.132Z,22.57
2023-02-11T22:10:18.995Z,26.77
2023-02-11T22:12:45.931Z,26.53
2023-02-11T22:15:12.936Z,26.20
2023-02-11T22:17:39.405Z,24.07
2023-02-11T22:20:06.826Z,23.20
2023-02-11T22:22:33.303Z,24.87
2023-02-11T22:25:03.189Z,23.27
2023-02-11T22:27:29.558Z,22.47
2023-02-11T22:29:56.118Z,22.93
2023-02-11T22:32:22.501Z,23.17
2023-02-11T22:34:50.873Z,24.87
2023-02-11T22:37:18.507Z,24.33
2023-02-11T22:39:44.845Z,24.30
2023-02-11T22:42:11.288Z,24.73
2023-02-11T22:44:37.922Z,24.30
2023-02-11T22:47:04.319Z,23.30
2023-02-11T22:49:33.022Z,22.53
2023-02-11T22:51:59.525Z,23.23
2023-02-11T22:54:25.874Z,22.70
2023-02-11T22:56:53.112Z,22.53
2023-02-11T22:59:20.453Z,20.87
2023-02-11T23:01:47.015Z,22.77
2023-02-11T23:04:15.069Z,21.60
2023-02-11T23:06:41.484Z,21.50
2023-02-11T23:09:10.024Z,22.43
2023-02-11T23:11:36.472Z,21.93
2023-02-11T23:14:03.296Z,20.23
2023-02-11T23:16:32.302Z,23.90
2023-02-11T23:19:00.243Z,21.73
2023-02-11T23:21:29.369Z,21.47
2023-02-11T23:24:01.278Z,23.20
2023-02-11T23:26:28.616Z,23.53
2023-02-11T23:28:55.786Z,23.10
2023-02-11T23:31:27.243Z,22.27
2023-02-11T23:33:54.270Z,20.63
2023-02-11T23:36:21.422Z,23.97
2023-02-11T23:38:48.863Z,20.70
2023-02-11T23:41:15.977Z,21.93
2023-02-11T23:43:43.080Z,20.87
2023-02-11T23:46:10.371Z,21.00
2023-02-11T23:48:37.507Z,20.50
2023-02-11T23:51:04.201Z,21.23
2023-02-11T23:53:30.586Z,22.33
2023-02-11T23:55:57.186Z,23.07
2023-02-11T23:58:23.633Z,20.73
